Pagina principale
METAR-TAF:

METAR-TAF

Aeroporti :

Aeroporto di Innsbruck

Innsbruck, Austria

latitudine: 47-16N, longitudine: 011-21E, altezza: 581 m

Osservazione

Il bollettino è stato emesso 10 minuti fa, alle 14:20 UTC
Vento 8 kt da nord-est, variando fra nord e est
Temperature 26°C
Umidità 37%
Pressione 1015 hPa
Visibilità 10 km o più
Poco nuvoloso ad un'altezza di 7000 ft
Nubi sparse ad un'altezza di 10000 ft

METAR: LOWI 131420Z 05008KT 010V090 9999 FEW070 SCT100 26/10 Q1015 NOSIG

Ora: 16:30 (14:30 UTC)

Previsione

Il bollettino è stato emesso 3 ore e 15 minuti fa, alle 11:15 UTC
Previsione valida dal 13 alle 12 UTC al 14 alle 12 UTC
Vento 10 kt da est
Visibilità 10 km o più
nessuna nube inferiore a 1500 m e nessun cumulonembo
Evoluzione graduale
dal 13 alle 18 UTC al 13 alle 20 UTC
Vento 2 kt da direzioni variabili

TAF: LOWI 131115Z 1312/1412 09010KT CAVOK TX27/1412Z TN12/1404Z BECMG 1318/1320 VRB02KT

Osservazioni e previsioni meteorologiche di più di 4000 aeroporti (messaggi METAR e TAF).

Le stazioni disponibili sono rappresentate dai dischi gialli e rossi sulla carta.

Puntare il mouse per vedere il nome della stazione.

Clicca sopra per visualizzare le osservazioni e previsioni meteorologiche.

Per cambiare la mappa : fare clic sui pulsanti verdi con una croce nera per ingrandire, il pulsante verde con un trattino per diminuire, o sulla freccia verde per le mappe adiacenti.


METAR-TAF: